JST328 YSSY-YMML
Flight info
| Callsign | JST328 |
|---|---|
| Flight time | 1h 2m |
| Altitude | 36000 |
| Route | GROOK1/16R WOL H65 LEECE Q29 ML |
| Aircraft | A20N/M-SDE2E3FGHIRWXY/LB1 |
Departure
| Time | 2026-04-21 08:37 |
|---|---|
| Airport | Sydney Kingsford Smith International Airport (YSSY) |
Arrival
| Time | 2026-04-21 09:39 |
|---|---|
| Airport | Melbourne Airport (YMML) |
| Time | Latitude | Longitude | Altitude | Speed | Heading |
|---|---|---|---|---|---|
| 2026-04-21 07:53 | -33.93562 | 151.17773 | 30 ft | 0 kts | 280° |
| 2026-04-21 08:22 | -33.93564 | 151.17783 | 30 ft | 2 kts | 274° |
| 2026-04-21 08:22 | -33.93563 | 151.17801 | 30 ft | 2 kts | 251° |
| 2026-04-21 08:22 | -33.93556 | 151.17817 | 30 ft | 2 kts | 228° |
| 2026-04-21 08:23 | -33.93545 | 151.17829 | 30 ft | 2 kts | 205° |
| 2026-04-21 08:23 | -33.93534 | 151.17834 | 30 ft | 0 kts | 187° |
| 2026-04-21 08:29 | -33.93561 | 151.17830 | 30 ft | 8 kts | 187° |
| 2026-04-21 08:29 | -33.93631 | 151.17820 | 30 ft | 8 kts | 187° |
| 2026-04-21 08:29 | -33.93690 | 151.17811 | 30 ft | 8 kts | 187° |
| 2026-04-21 08:30 | -33.93748 | 151.17798 | 27 ft | 6 kts | 201° |
| 2026-04-21 08:30 | -33.93790 | 151.17777 | 23 ft | 0 kts | 202° |
| 2026-04-21 08:30 | -33.93851 | 151.17722 | 19 ft | 14 kts | 237° |
| 2026-04-21 08:30 | -33.93849 | 151.17687 | 18 ft | 5 kts | 313° |
| 2026-04-21 08:31 | -33.93821 | 151.17691 | 20 ft | 7 kts | 10° |
| 2026-04-21 08:31 | -33.93758 | 151.17692 | 20 ft | 10 kts | 350° |
| 2026-04-21 08:31 | -33.93685 | 151.17665 | 27 ft | 11 kts | 335° |
| 2026-04-21 08:31 | -33.93603 | 151.17617 | 28 ft | 17 kts | 342° |
| 2026-04-21 08:32 | -33.93477 | 151.17583 | 27 ft | 20 kts | 350° |
| 2026-04-21 08:32 | -33.93349 | 151.17584 | 30 ft | 19 kts | 350° |
| 2026-04-21 08:32 | -33.93216 | 151.17554 | 30 ft | 20 kts | 349° |
| 2026-04-21 08:32 | -33.93071 | 151.17533 | 30 ft | 22 kts | 4° |
| 2026-04-21 08:33 | -33.92997 | 151.17507 | 30 ft | 7 kts | 303° |
| 2026-04-21 08:33 | -33.92980 | 151.17437 | 27 ft | 13 kts | 282° |
| 2026-04-21 08:33 | -33.92960 | 151.17316 | 22 ft | 0 kts | 281° |
| 2026-04-21 08:35 | -33.92959 | 151.17314 | 21 ft | 2 kts | 281° |
| 2026-04-21 08:35 | -33.92958 | 151.17242 | 19 ft | 14 kts | 256° |
| 2026-04-21 08:36 | -33.93060 | 151.17190 | 20 ft | 23 kts | 168° |
| 2026-04-21 08:36 | -33.93447 | 151.17292 | 15 ft | 99 kts | 167° |
| 2026-04-21 08:36 | -33.94353 | 151.17526 | 28 ft | 164 kts | 168° |
| 2026-04-21 08:36 | -33.95543 | 151.17796 | 546 ft | 179 kts | 174° |
| 2026-04-21 08:37 | -33.96758 | 151.17836 | 1545 ft | 172 kts | 183° |
| 2026-04-21 08:37 | -33.98009 | 151.17747 | 2131 ft | 189 kts | 185° |
| 2026-04-21 08:37 | -33.99395 | 151.17639 | 2627 ft | 210 kts | 184° |
| 2026-04-21 08:37 | -34.00941 | 151.17554 | 3100 ft | 233 kts | 182° |
| 2026-04-21 08:38 | -34.02636 | 151.17550 | 3664 ft | 255 kts | 174° |
| 2026-04-21 08:38 | -34.04413 | 151.18042 | 4143 ft | 269 kts | 165° |
| 2026-04-21 08:38 | -34.06201 | 151.18652 | 4246 ft | 266 kts | 165° |
| 2026-04-21 08:38 | -34.07984 | 151.19260 | 4354 ft | 267 kts | 165° |
| 2026-04-21 08:39 | -34.09773 | 151.19864 | 4456 ft | 268 kts | 165° |
| 2026-04-21 08:39 | -34.11580 | 151.20470 | 4786 ft | 271 kts | 165° |
| 2026-04-21 08:39 | -34.13400 | 151.21079 | 5713 ft | 271 kts | 165° |
| 2026-04-21 08:39 | -34.15221 | 151.21687 | 6703 ft | 273 kts | 165° |
| 2026-04-21 08:40 | -34.17066 | 151.22302 | 7603 ft | 277 kts | 165° |
| 2026-04-21 08:40 | -34.18967 | 151.22764 | 8491 ft | 280 kts | 180° |
| 2026-04-21 08:40 | -34.20870 | 151.22281 | 9338 ft | 283 kts | 206° |
| 2026-04-21 08:40 | -34.22457 | 151.20853 | 10092 ft | 292 kts | 226° |
| 2026-04-21 08:41 | -34.23799 | 151.18902 | 10517 ft | 310 kts | 233° |
| 2026-04-21 08:41 | -34.25089 | 151.16788 | 11308 ft | 314 kts | 233° |
| 2026-04-21 08:41 | -34.26407 | 151.14701 | 12114 ft | 318 kts | 232° |
| 2026-04-21 08:41 | -34.27802 | 151.12605 | 12900 ft | 322 kts | 231° |
| 2026-04-21 08:42 | -34.29266 | 151.10484 | 13677 ft | 326 kts | 230° |
| 2026-04-21 08:42 | -34.30727 | 151.08410 | 14419 ft | 330 kts | 230° |
| 2026-04-21 08:42 | -34.32228 | 151.06295 | 15149 ft | 334 kts | 230° |
| 2026-04-21 08:42 | -34.33750 | 151.04153 | 15860 ft | 337 kts | 230° |
| 2026-04-21 08:43 | -34.35286 | 151.01988 | 16554 ft | 341 kts | 230° |
| 2026-04-21 08:43 | -34.36839 | 150.99802 | 17224 ft | 344 kts | 229° |
| 2026-04-21 08:43 | -34.38586 | 150.97784 | 17806 ft | 352 kts | 222° |
| 2026-04-21 08:43 | -34.40459 | 150.95766 | 17990 ft | 369 kts | 222° |
| 2026-04-21 08:44 | -34.42401 | 150.93670 | 18436 ft | 377 kts | 222° |
| 2026-04-21 08:44 | -34.44365 | 150.91545 | 19067 ft | 380 kts | 222° |
| 2026-04-21 08:44 | -34.46347 | 150.89396 | 19664 ft | 384 kts | 222° |
| 2026-04-21 08:44 | -34.48341 | 150.87232 | 20245 ft | 387 kts | 222° |
| 2026-04-21 08:45 | -34.50360 | 150.85039 | 20816 ft | 390 kts | 222° |
| 2026-04-21 08:45 | -34.52388 | 150.82835 | 21371 ft | 394 kts | 222° |
| 2026-04-21 08:45 | -34.53742 | 150.81362 | 21729 ft | 396 kts | 222° |
| 2026-04-21 08:45 | -34.55760 | 150.79072 | 22255 ft | 399 kts | 228° |
| 2026-04-21 08:46 | -34.57463 | 150.76392 | 22769 ft | 402 kts | 234° |
| 2026-04-21 08:46 | -34.59119 | 150.73640 | 23265 ft | 406 kts | 234° |
| 2026-04-21 08:46 | -34.60789 | 150.70865 | 23748 ft | 409 kts | 234° |
| 2026-04-21 08:46 | -34.62484 | 150.68050 | 24124 ft | 415 kts | 234° |
| 2026-04-21 08:47 | -34.64194 | 150.65209 | 24649 ft | 417 kts | 234° |
| 2026-04-21 08:47 | -34.65915 | 150.62348 | 25113 ft | 420 kts | 234° |
| 2026-04-21 08:47 | -34.67644 | 150.59471 | 25619 ft | 421 kts | 234° |
| 2026-04-21 08:47 | -34.69375 | 150.56591 | 26013 ft | 426 kts | 234° |
| 2026-04-21 08:48 | -34.71126 | 150.53674 | 26478 ft | 427 kts | 234° |
| 2026-04-21 08:48 | -34.72880 | 150.50748 | 26910 ft | 429 kts | 234° |
| 2026-04-21 08:48 | -34.74642 | 150.47808 | 27275 ft | 432 kts | 234° |
| 2026-04-21 08:48 | -34.76416 | 150.44845 | 27622 ft | 435 kts | 234° |
| 2026-04-21 08:49 | -34.78209 | 150.41848 | 27944 ft | 438 kts | 234° |
| 2026-04-21 08:49 | -34.79978 | 150.38888 | 28341 ft | 440 kts | 234° |
| 2026-04-21 08:49 | -34.81783 | 150.35865 | 28670 ft | 442 kts | 234° |
| 2026-04-21 08:49 | -34.83594 | 150.32830 | 29017 ft | 444 kts | 234° |
| 2026-04-21 08:50 | -34.85412 | 150.29781 | 29338 ft | 446 kts | 234° |
| 2026-04-21 08:50 | -34.87241 | 150.26710 | 29592 ft | 450 kts | 234° |
| 2026-04-21 08:50 | -34.89079 | 150.23621 | 29899 ft | 452 kts | 234° |
| 2026-04-21 08:50 | -34.90933 | 150.20503 | 30103 ft | 456 kts | 234° |
| 2026-04-21 08:51 | -34.92794 | 150.17371 | 30419 ft | 458 kts | 234° |
| 2026-04-21 08:51 | -34.94662 | 150.14224 | 30713 ft | 460 kts | 234° |
| 2026-04-21 08:51 | -34.96541 | 150.11056 | 31020 ft | 461 kts | 234° |
| 2026-04-21 08:51 | -34.98421 | 150.07883 | 31390 ft | 461 kts | 234° |
| 2026-04-21 08:52 | -35.00295 | 150.04717 | 31792 ft | 460 kts | 234° |
| 2026-04-21 08:52 | -35.02165 | 150.01555 | 32176 ft | 459 kts | 234° |
| 2026-04-21 08:52 | -35.04033 | 149.98395 | 32500 ft | 459 kts | 234° |
| 2026-04-21 08:52 | -35.05901 | 149.95231 | 32846 ft | 459 kts | 234° |
| 2026-04-21 08:53 | -35.07761 | 149.92076 | 33193 ft | 458 kts | 234° |
| 2026-04-21 08:53 | -35.09623 | 149.88917 | 33517 ft | 457 kts | 234° |
| 2026-04-21 08:53 | -35.11478 | 149.85766 | 33834 ft | 457 kts | 234° |
| 2026-04-21 08:53 | -35.13330 | 149.82620 | 34135 ft | 456 kts | 234° |
| 2026-04-21 08:54 | -35.15181 | 149.79473 | 34419 ft | 456 kts | 234° |
| 2026-04-21 08:54 | -35.17028 | 149.76329 | 34710 ft | 455 kts | 234° |
| 2026-04-21 08:54 | -35.18869 | 149.73191 | 34984 ft | 454 kts | 234° |
| 2026-04-21 08:54 | -35.20686 | 149.70093 | 35234 ft | 454 kts | 234° |
| 2026-04-21 08:55 | -35.22524 | 149.66956 | 35485 ft | 454 kts | 234° |
| 2026-04-21 08:55 | -35.24361 | 149.63817 | 35725 ft | 453 kts | 234° |
| 2026-04-21 08:55 | -35.26195 | 149.60680 | 35936 ft | 454 kts | 234° |
| 2026-04-21 08:56 | -35.29857 | 149.54410 | 35999 ft | 452 kts | 234° |
| 2026-04-21 08:56 | -35.33516 | 149.48134 | 35998 ft | 453 kts | 234° |
| 2026-04-21 08:57 | -35.37164 | 149.41864 | 35999 ft | 452 kts | 234° |
| 2026-04-21 08:57 | -35.40808 | 149.35591 | 35998 ft | 452 kts | 234° |
| 2026-04-21 08:58 | -35.44458 | 149.29296 | 36007 ft | 454 kts | 234° |
| 2026-04-21 08:58 | -35.47880 | 149.23384 | 36002 ft | 452 kts | 234° |
| 2026-04-21 08:59 | -35.51522 | 149.17081 | 36001 ft | 453 kts | 235° |
| 2026-04-21 08:59 | -35.55159 | 149.10774 | 35998 ft | 451 kts | 235° |
| 2026-04-21 09:00 | -35.58759 | 149.04521 | 36000 ft | 451 kts | 235° |
| 2026-04-21 09:00 | -35.62388 | 148.98206 | 35999 ft | 453 kts | 235° |
| 2026-04-21 09:01 | -35.66046 | 148.91829 | 35983 ft | 453 kts | 235° |
| 2026-04-21 09:01 | -35.69684 | 148.85475 | 35998 ft | 457 kts | 235° |
| 2026-04-21 09:02 | -35.73303 | 148.79142 | 35998 ft | 456 kts | 235° |
| 2026-04-21 09:02 | -35.76959 | 148.72733 | 35998 ft | 456 kts | 235° |
| 2026-04-21 09:03 | -35.82406 | 148.63164 | 36003 ft | 456 kts | 235° |
| 2026-04-21 09:03 | -35.86043 | 148.56760 | 35998 ft | 456 kts | 235° |
| 2026-04-21 09:04 | -35.89685 | 148.50333 | 35998 ft | 456 kts | 235° |
| 2026-04-21 09:04 | -35.93308 | 148.43898 | 36002 ft | 457 kts | 235° |
| 2026-04-21 09:05 | -35.96936 | 148.37443 | 36001 ft | 456 kts | 235° |
| 2026-04-21 09:05 | -36.00541 | 148.31022 | 35999 ft | 455 kts | 235° |
| 2026-04-21 09:06 | -36.04117 | 148.24641 | 36000 ft | 456 kts | 235° |
| 2026-04-21 09:06 | -36.07724 | 148.18193 | 35999 ft | 453 kts | 235° |
| 2026-04-21 09:07 | -36.11289 | 148.11808 | 36000 ft | 450 kts | 236° |
| 2026-04-21 09:07 | -36.14845 | 148.05443 | 36001 ft | 448 kts | 235° |
| 2026-04-21 09:08 | -36.18393 | 147.99097 | 36002 ft | 449 kts | 235° |
| 2026-04-21 09:08 | -36.21957 | 147.92708 | 36001 ft | 449 kts | 236° |
| 2026-04-21 09:09 | -36.25501 | 147.86341 | 36004 ft | 450 kts | 236° |
| 2026-04-21 09:09 | -36.29052 | 147.79950 | 36000 ft | 449 kts | 236° |
| 2026-04-21 09:10 | -36.32604 | 147.73544 | 35999 ft | 454 kts | 236° |
| 2026-04-21 09:10 | -36.36141 | 147.67145 | 36000 ft | 451 kts | 236° |
| 2026-04-21 09:11 | -36.39691 | 147.60700 | 36002 ft | 454 kts | 236° |
| 2026-04-21 09:11 | -36.43234 | 147.54258 | 36000 ft | 449 kts | 236° |
| 2026-04-21 09:12 | -36.46765 | 147.47827 | 35998 ft | 450 kts | 236° |
| 2026-04-21 09:12 | -36.50282 | 147.41411 | 35999 ft | 449 kts | 236° |
| 2026-04-21 09:13 | -36.53790 | 147.34997 | 36001 ft | 449 kts | 236° |
| 2026-04-21 09:13 | -36.57304 | 147.28561 | 35994 ft | 451 kts | 236° |
| 2026-04-21 09:14 | -36.60831 | 147.22088 | 35997 ft | 452 kts | 236° |
| 2026-04-21 09:14 | -36.64343 | 147.15632 | 36002 ft | 452 kts | 236° |
| 2026-04-21 09:15 | -36.67830 | 147.09208 | 35471 ft | 445 kts | 236° |
| 2026-04-21 09:15 | -36.69572 | 147.05995 | 34641 ft | 450 kts | 236° |
| 2026-04-21 09:15 | -36.71322 | 147.02765 | 33966 ft | 450 kts | 236° |
| 2026-04-21 09:16 | -36.73069 | 146.99535 | 33281 ft | 449 kts | 236° |
| 2026-04-21 09:16 | -36.74816 | 146.96302 | 32549 ft | 449 kts | 236° |
| 2026-04-21 09:16 | -36.76568 | 146.93058 | 31672 ft | 453 kts | 236° |
| 2026-04-21 09:16 | -36.78333 | 146.89786 | 30889 ft | 454 kts | 236° |
| 2026-04-21 09:17 | -36.80096 | 146.86515 | 30131 ft | 454 kts | 236° |
| 2026-04-21 09:17 | -36.81852 | 146.83254 | 29543 ft | 449 kts | 236° |
| 2026-04-21 09:17 | -36.83591 | 146.80021 | 28808 ft | 449 kts | 236° |
| 2026-04-21 09:17 | -36.85324 | 146.76797 | 28308 ft | 442 kts | 236° |
| 2026-04-21 09:18 | -36.87028 | 146.73622 | 27758 ft | 437 kts | 236° |
| 2026-04-21 09:18 | -36.88716 | 146.70475 | 27146 ft | 434 kts | 236° |
| 2026-04-21 09:18 | -36.90384 | 146.67362 | 26622 ft | 429 kts | 236° |
| 2026-04-21 09:18 | -36.92040 | 146.64269 | 25960 ft | 427 kts | 236° |
| 2026-04-21 09:19 | -36.93685 | 146.61193 | 25404 ft | 423 kts | 236° |
| 2026-04-21 09:19 | -36.95311 | 146.58151 | 24835 ft | 419 kts | 236° |
| 2026-04-21 09:19 | -36.96921 | 146.55136 | 24284 ft | 415 kts | 236° |
| 2026-04-21 09:19 | -36.98516 | 146.52145 | 23730 ft | 411 kts | 236° |
| 2026-04-21 09:20 | -37.00097 | 146.49178 | 23108 ft | 409 kts | 236° |
| 2026-04-21 09:20 | -37.01639 | 146.46282 | 22586 ft | 405 kts | 236° |
| 2026-04-21 09:20 | -37.03198 | 146.43353 | 21993 ft | 402 kts | 236° |
| 2026-04-21 09:20 | -37.04745 | 146.40442 | 21377 ft | 400 kts | 236° |
| 2026-04-21 09:21 | -37.06275 | 146.37562 | 20888 ft | 395 kts | 236° |
| 2026-04-21 09:21 | -37.07786 | 146.34716 | 20359 ft | 391 kts | 236° |
| 2026-04-21 09:21 | -37.09288 | 146.31882 | 19802 ft | 387 kts | 237° |
| 2026-04-21 09:21 | -37.10771 | 146.29082 | 19272 ft | 384 kts | 237° |
| 2026-04-21 09:22 | -37.12240 | 146.26308 | 18739 ft | 380 kts | 237° |
| 2026-04-21 09:22 | -37.13696 | 146.23555 | 18179 ft | 377 kts | 237° |
| 2026-04-21 09:22 | -37.15138 | 146.20825 | 17656 ft | 374 kts | 237° |
| 2026-04-21 09:22 | -37.16568 | 146.18117 | 17124 ft | 371 kts | 237° |
| 2026-04-21 09:23 | -37.17986 | 146.15430 | 16584 ft | 368 kts | 237° |
| 2026-04-21 09:23 | -37.19392 | 146.12763 | 16048 ft | 365 kts | 237° |
| 2026-04-21 09:23 | -37.20787 | 146.10115 | 15545 ft | 362 kts | 237° |
| 2026-04-21 09:23 | -37.22167 | 146.07494 | 15036 ft | 359 kts | 237° |
| 2026-04-21 09:24 | -37.23537 | 146.04887 | 14472 ft | 357 kts | 237° |
| 2026-04-21 09:24 | -37.24902 | 146.02291 | 13999 ft | 353 kts | 237° |
| 2026-04-21 09:24 | -37.26249 | 145.99726 | 13455 ft | 351 kts | 237° |
| 2026-04-21 09:24 | -37.27590 | 145.97170 | 12969 ft | 349 kts | 237° |
| 2026-04-21 09:25 | -37.28918 | 145.94637 | 12461 ft | 346 kts | 237° |
| 2026-04-21 09:25 | -37.30235 | 145.92123 | 11930 ft | 344 kts | 237° |
| 2026-04-21 09:25 | -37.31549 | 145.89616 | 11381 ft | 343 kts | 237° |
| 2026-04-21 09:25 | -37.32855 | 145.87129 | 10899 ft | 340 kts | 237° |
| 2026-04-21 09:26 | -37.34150 | 145.84666 | 10429 ft | 337 kts | 237° |
| 2026-04-21 09:26 | -37.35437 | 145.82214 | 9885 ft | 336 kts | 237° |
| 2026-04-21 09:26 | -37.36718 | 145.79770 | 9483 ft | 331 kts | 237° |
| 2026-04-21 09:26 | -37.37956 | 145.77408 | 9355 ft | 317 kts | 237° |
| 2026-04-21 09:27 | -37.39142 | 145.75143 | 9232 ft | 303 kts | 237° |
| 2026-04-21 09:27 | -37.40278 | 145.72971 | 9125 ft | 291 kts | 237° |
| 2026-04-21 09:27 | -37.41369 | 145.70883 | 8900 ft | 283 kts | 237° |
| 2026-04-21 09:27 | -37.42435 | 145.68841 | 8800 ft | 281 kts | 237° |
| 2026-04-21 09:28 | -37.43521 | 145.66761 | 8716 ft | 285 kts | 237° |
| 2026-04-21 09:28 | -37.44590 | 145.64712 | 8705 ft | 283 kts | 237° |
| 2026-04-21 09:28 | -37.45673 | 145.62635 | 8705 ft | 285 kts | 237° |
| 2026-04-21 09:28 | -37.46761 | 145.60549 | 8704 ft | 285 kts | 237° |
| 2026-04-21 09:29 | -37.47858 | 145.58444 | 8653 ft | 282 kts | 237° |
| 2026-04-21 09:29 | -37.48932 | 145.56382 | 8365 ft | 281 kts | 237° |
| 2026-04-21 09:29 | -37.50005 | 145.54321 | 7988 ft | 281 kts | 237° |
| 2026-04-21 09:29 | -37.51058 | 145.52297 | 7614 ft | 280 kts | 237° |
| 2026-04-21 09:30 | -37.52121 | 145.50253 | 7252 ft | 278 kts | 237° |
| 2026-04-21 09:30 | -37.53176 | 145.48224 | 6882 ft | 276 kts | 237° |
| 2026-04-21 09:30 | -37.54224 | 145.46207 | 6509 ft | 274 kts | 237° |
| 2026-04-21 09:30 | -37.55264 | 145.44203 | 6139 ft | 272 kts | 237° |
| 2026-04-21 09:31 | -37.56296 | 145.42213 | 5780 ft | 270 kts | 237° |
| 2026-04-21 09:31 | -37.57321 | 145.40235 | 5394 ft | 269 kts | 237° |
| 2026-04-21 09:31 | -37.57999 | 145.38928 | 5154 ft | 268 kts | 237° |
| 2026-04-21 09:31 | -37.59011 | 145.36973 | 4882 ft | 262 kts | 237° |
| 2026-04-21 09:32 | -37.60017 | 145.35029 | 4799 ft | 270 kts | 237° |
| 2026-04-21 09:32 | -37.61040 | 145.33051 | 4708 ft | 267 kts | 237° |
| 2026-04-21 09:32 | -37.62049 | 145.31100 | 4475 ft | 265 kts | 237° |
| 2026-04-21 09:32 | -37.63051 | 145.29160 | 4134 ft | 264 kts | 237° |
| 2026-04-21 09:33 | -37.64050 | 145.27226 | 3766 ft | 262 kts | 237° |
| 2026-04-21 09:33 | -37.65042 | 145.25303 | 3405 ft | 261 kts | 237° |
| 2026-04-21 09:33 | -37.66031 | 145.23387 | 3041 ft | 260 kts | 237° |
| 2026-04-21 09:33 | -37.67006 | 145.21494 | 2853 ft | 255 kts | 237° |
| 2026-04-21 09:34 | -37.67955 | 145.19559 | 2759 ft | 261 kts | 246° |
| 2026-04-21 09:34 | -37.68289 | 145.17352 | 2704 ft | 257 kts | 275° |
| 2026-04-21 09:34 | -37.67762 | 145.15203 | 2702 ft | 259 kts | 295° |
| 2026-04-21 09:34 | -37.67129 | 145.13081 | 2720 ft | 258 kts | 285° |
| 2026-04-21 09:35 | -37.66782 | 145.10857 | 2703 ft | 258 kts | 276° |
| 2026-04-21 09:35 | -37.66693 | 145.08641 | 2702 ft | 246 kts | 269° |
| 2026-04-21 09:35 | -37.66776 | 145.06575 | 2702 ft | 231 kts | 265° |
| 2026-04-21 09:35 | -37.66937 | 145.04618 | 2700 ft | 217 kts | 263° |
| 2026-04-21 09:36 | -37.67114 | 145.02793 | 2700 ft | 203 kts | 265° |
| 2026-04-21 09:36 | -37.67156 | 145.00977 | 2701 ft | 208 kts | 271° |
| 2026-04-21 09:36 | -37.67073 | 144.99187 | 2662 ft | 200 kts | 275° |
| 2026-04-21 09:36 | -37.66965 | 144.97445 | 2396 ft | 199 kts | 274° |
| 2026-04-21 09:37 | -37.66864 | 144.95718 | 2162 ft | 193 kts | 274° |
| 2026-04-21 09:37 | -37.66767 | 144.94048 | 1876 ft | 188 kts | 274° |
| 2026-04-21 09:37 | -37.66673 | 144.92433 | 1623 ft | 181 kts | 274° |
| 2026-04-21 09:37 | -37.66584 | 144.90902 | 1386 ft | 167 kts | 274° |
| 2026-04-21 09:38 | -37.66500 | 144.89475 | 1161 ft | 157 kts | 274° |
| 2026-04-21 09:38 | -37.66424 | 144.88165 | 988 ft | 150 kts | 274° |
| 2026-04-21 09:38 | -37.66346 | 144.86829 | 773 ft | 150 kts | 274° |
| 2026-04-21 09:38 | -37.66270 | 144.85524 | 569 ft | 145 kts | 274° |
| 2026-04-21 09:39 | -37.66198 | 144.84300 | 411 ft | 137 kts | 274° |
| 2026-04-21 09:39 | -37.66155 | 144.83530 | 409 ft | 48 kts | 274° |
| 2026-04-21 09:39 | -37.66135 | 144.83185 | 410 ft | 39 kts | 274° |
| 2026-04-21 09:39 | -37.66200 | 144.82849 | 408 ft | 37 kts | 244° |
| 2026-04-21 09:40 | -37.66232 | 144.82769 | 402 ft | 0 kts | 242° |
| 2026-04-21 09:41 | -37.66240 | 144.82749 | 406 ft | 6 kts | 242° |
| 2026-04-21 09:42 | -37.66284 | 144.82693 | 403 ft | 12 kts | 209° |
| 2026-04-21 09:42 | -37.66385 | 144.82693 | 398 ft | 18 kts | 153° |
| 2026-04-21 09:42 | -37.66448 | 144.82831 | 399 ft | 19 kts | 93° |
| 2026-04-21 09:42 | -37.66456 | 144.83003 | 401 ft | 20 kts | 94° |
| 2026-04-21 09:43 | -37.66465 | 144.83170 | 408 ft | 18 kts | 94° |
| 2026-04-21 09:43 | -37.66475 | 144.83321 | 406 ft | 17 kts | 95° |
| 2026-04-21 09:43 | -37.66485 | 144.83479 | 411 ft | 20 kts | 95° |
| 2026-04-21 09:43 | -37.66492 | 144.83580 | 411 ft | 0 kts | 95° |
| 2026-04-21 09:50 | -37.66492 | 144.83581 | 411 ft | 1 kts | 95° |
| 2026-04-21 09:50 | -37.66496 | 144.83647 | 410 ft | 15 kts | 94° |
| 2026-04-21 09:51 | -37.66505 | 144.83795 | 408 ft | 20 kts | 94° |
| 2026-04-21 09:51 | -37.66514 | 144.83953 | 406 ft | 14 kts | 94° |
| 2026-04-21 09:51 | -37.66530 | 144.84078 | 406 ft | 17 kts | 111° |
| 2026-04-21 09:51 | -37.66630 | 144.84164 | 404 ft | 20 kts | 169° |
| 2026-04-21 09:52 | -37.66785 | 144.84198 | 398 ft | 25 kts | 174° |
| 2026-04-21 09:52 | -37.66970 | 144.84226 | 394 ft | 27 kts | 172° |
| 2026-04-21 09:52 | -37.67111 | 144.84252 | 389 ft | 21 kts | 172° |
| 2026-04-21 09:52 | -37.67202 | 144.84381 | 385 ft | 22 kts | 90° |
| 2026-04-21 09:53 | -37.67217 | 144.84552 | 382 ft | 21 kts | 91° |
| 2026-04-21 09:53 | -37.67161 | 144.84588 | 385 ft | 0 kts | 323° |
| 2026-04-21 09:53 | -37.67160 | 144.84588 | 385 ft | 0 kts | 328° |
| 2026-04-21 09:53 | -37.67155 | 144.84589 | 385 ft | 2 kts | 355° |
| 2026-04-21 09:54 | -37.67137 | 144.84588 | 386 ft | 3 kts | 355° |
| 2026-04-21 09:54 | -37.67136 | 144.84588 | 386 ft | 0 kts | 355° |